AFR002 LFPG-EGLL
Flight info
| Callsign | AFR002 |
|---|---|
| Flight time | 1h 2m |
| Altitude | 24000 |
| Route | OPALE DCT KESAX DCT DIMAL DCT ALESO |
| Aircraft | A346/H-SDE2E3FGHIJ3J4J5M1RWXY/LB1D1 |
Departure
| Time | 2026-05-07 19:30 |
|---|---|
| Airport | Charles de Gaulle International Airport (LFPG) |
Arrival
| Time | 2026-05-07 20:32 |
|---|---|
| Airport | London Heathrow Airport (EGLL) |
| Time | Latitude | Longitude | Altitude | Speed | Heading |
|---|---|---|---|---|---|
| 2026-05-07 19:30 | 49.05744 | 2.79929 | 5807 ft | 259 kts | 62° |
| 2026-05-07 19:30 | 49.06596 | 2.82377 | 5988 ft | 260 kts | 62° |
| 2026-05-07 19:30 | 49.07429 | 2.84810 | 5988 ft | 259 kts | 63° |
| 2026-05-07 19:30 | 49.08270 | 2.87297 | 5993 ft | 259 kts | 63° |
| 2026-05-07 19:31 | 49.09093 | 2.89744 | 5995 ft | 259 kts | 63° |
| 2026-05-07 19:31 | 49.09913 | 2.92192 | 6018 ft | 262 kts | 63° |
| 2026-05-07 19:31 | 49.10735 | 2.94650 | 6378 ft | 261 kts | 63° |
| 2026-05-07 19:31 | 49.11566 | 2.97139 | 6912 ft | 268 kts | 63° |
| 2026-05-07 19:32 | 49.12494 | 2.99688 | 7437 ft | 278 kts | 50° |
| 2026-05-07 19:32 | 49.14043 | 3.01470 | 7956 ft | 285 kts | 19° |
| 2026-05-07 19:32 | 49.15976 | 3.02163 | 8504 ft | 292 kts | 10° |
| 2026-05-07 19:32 | 49.18014 | 3.02731 | 9040 ft | 301 kts | 10° |
| 2026-05-07 19:33 | 49.20100 | 3.03326 | 9573 ft | 309 kts | 11° |
| 2026-05-07 19:33 | 49.22214 | 3.03949 | 10099 ft | 317 kts | 11° |
| 2026-05-07 19:33 | 49.24419 | 3.04612 | 10635 ft | 325 kts | 11° |
| 2026-05-07 19:33 | 49.26671 | 3.04872 | 11132 ft | 332 kts | 350° |
| 2026-05-07 19:34 | 49.28802 | 3.03558 | 11661 ft | 337 kts | 322° |
| 2026-05-07 19:34 | 49.30426 | 3.00987 | 12212 ft | 342 kts | 309° |
| 2026-05-07 19:34 | 49.31943 | 2.98176 | 12741 ft | 349 kts | 310° |
| 2026-05-07 19:34 | 49.33526 | 2.95303 | 13272 ft | 355 kts | 310° |
| 2026-05-07 19:35 | 49.35157 | 2.92415 | 13802 ft | 361 kts | 311° |
| 2026-05-07 19:35 | 49.36814 | 2.89532 | 14350 ft | 366 kts | 311° |
| 2026-05-07 19:35 | 49.38513 | 2.86604 | 15007 ft | 368 kts | 312° |
| 2026-05-07 19:35 | 49.40203 | 2.83707 | 15655 ft | 369 kts | 312° |
| 2026-05-07 19:36 | 49.41922 | 2.80769 | 16311 ft | 369 kts | 312° |
| 2026-05-07 19:36 | 49.43640 | 2.77836 | 16965 ft | 369 kts | 312° |
| 2026-05-07 19:36 | 49.45338 | 2.74937 | 17581 ft | 370 kts | 312° |
| 2026-05-07 19:36 | 49.47056 | 2.72004 | 18107 ft | 373 kts | 312° |
| 2026-05-07 19:37 | 49.48778 | 2.69059 | 18975 ft | 365 kts | 312° |
| 2026-05-07 19:37 | 49.50447 | 2.66205 | 19896 ft | 355 kts | 312° |
| 2026-05-07 19:37 | 49.52049 | 2.63460 | 20803 ft | 343 kts | 312° |
| 2026-05-07 19:37 | 49.53618 | 2.60771 | 21667 ft | 332 kts | 312° |
| 2026-05-07 19:38 | 49.55169 | 2.58107 | 22068 ft | 336 kts | 312° |
| 2026-05-07 19:38 | 49.56734 | 2.55418 | 22473 ft | 338 kts | 312° |
| 2026-05-07 19:38 | 49.58310 | 2.52709 | 22875 ft | 341 kts | 312° |
| 2026-05-07 19:38 | 49.59888 | 2.49993 | 23271 ft | 343 kts | 312° |
| 2026-05-07 19:39 | 49.61479 | 2.47252 | 23661 ft | 345 kts | 312° |
| 2026-05-07 19:39 | 49.63090 | 2.44472 | 23954 ft | 351 kts | 312° |
| 2026-05-07 19:39 | 49.64748 | 2.41611 | 23990 ft | 365 kts | 312° |
| 2026-05-07 19:39 | 49.66468 | 2.38637 | 23999 ft | 379 kts | 312° |
| 2026-05-07 19:40 | 49.68238 | 2.35576 | 24003 ft | 394 kts | 312° |
| 2026-05-07 19:40 | 49.70095 | 2.32354 | 24004 ft | 408 kts | 311° |
| 2026-05-07 19:40 | 49.72015 | 2.29010 | 24005 ft | 422 kts | 311° |
| 2026-05-07 19:40 | 49.73985 | 2.25576 | 24005 ft | 435 kts | 311° |
| 2026-05-07 19:41 | 49.76005 | 2.22056 | 24000 ft | 441 kts | 311° |
| 2026-05-07 19:41 | 49.78042 | 2.18504 | 23998 ft | 443 kts | 311° |
| 2026-05-07 19:41 | 49.80086 | 2.14937 | 23998 ft | 443 kts | 311° |
| 2026-05-07 19:41 | 49.82127 | 2.11370 | 23937 ft | 442 kts | 311° |
| 2026-05-07 19:42 | 49.84159 | 2.07814 | 23972 ft | 443 kts | 311° |
| 2026-05-07 19:42 | 49.86192 | 2.04251 | 23986 ft | 443 kts | 311° |
| 2026-05-07 19:42 | 49.88205 | 2.00718 | 23992 ft | 443 kts | 311° |
| 2026-05-07 19:42 | 49.90247 | 1.97131 | 23995 ft | 443 kts | 311° |
| 2026-05-07 19:43 | 49.92284 | 1.93549 | 23996 ft | 443 kts | 311° |
| 2026-05-07 19:43 | 49.94318 | 1.89966 | 23996 ft | 443 kts | 311° |
| 2026-05-07 19:43 | 49.96333 | 1.86411 | 23997 ft | 443 kts | 311° |
| 2026-05-07 19:43 | 49.98386 | 1.82785 | 23997 ft | 443 kts | 311° |
| 2026-05-07 19:44 | 50.00403 | 1.79218 | 23997 ft | 443 kts | 311° |
| 2026-05-07 19:44 | 50.02420 | 1.75644 | 23997 ft | 443 kts | 311° |
| 2026-05-07 19:44 | 50.04460 | 1.72024 | 23996 ft | 443 kts | 311° |
| 2026-05-07 19:44 | 50.06466 | 1.68418 | 23993 ft | 443 kts | 308° |
| 2026-05-07 19:45 | 50.07968 | 1.64234 | 23976 ft | 442 kts | 290° |
| 2026-05-07 19:45 | 50.08877 | 1.59709 | 23996 ft | 443 kts | 286° |
| 2026-05-07 19:45 | 50.09697 | 1.55075 | 23996 ft | 443 kts | 285° |
| 2026-05-07 19:45 | 50.10529 | 1.50428 | 23996 ft | 443 kts | 286° |
| 2026-05-07 19:46 | 50.11460 | 1.45846 | 23983 ft | 443 kts | 294° |
| 2026-05-07 19:46 | 50.13128 | 1.41908 | 23967 ft | 442 kts | 315° |
| 2026-05-07 19:46 | 50.15609 | 1.39044 | 23985 ft | 443 kts | 333° |
| 2026-05-07 19:46 | 50.18491 | 1.37428 | 23996 ft | 443 kts | 347° |
| 2026-05-07 19:47 | 50.21493 | 1.36351 | 24002 ft | 443 kts | 348° |
| 2026-05-07 19:47 | 50.24483 | 1.35293 | 23999 ft | 443 kts | 347° |
| 2026-05-07 19:47 | 50.27490 | 1.34195 | 23998 ft | 443 kts | 346° |
| 2026-05-07 19:47 | 50.30513 | 1.33050 | 23997 ft | 443 kts | 346° |
| 2026-05-07 19:48 | 50.33491 | 1.31950 | 23991 ft | 443 kts | 350° |
| 2026-05-07 19:48 | 50.36552 | 1.31895 | 23981 ft | 442 kts | 9° |
| 2026-05-07 19:48 | 50.39565 | 1.32924 | 24002 ft | 443 kts | 14° |
| 2026-05-07 19:48 | 50.42543 | 1.34147 | 24000 ft | 443 kts | 14° |
| 2026-05-07 19:49 | 50.45533 | 1.35305 | 23998 ft | 443 kts | 13° |
| 2026-05-07 19:49 | 50.48518 | 1.36364 | 23997 ft | 443 kts | 12° |
| 2026-05-07 19:49 | 50.51553 | 1.36923 | 23967 ft | 442 kts | 355° |
| 2026-05-07 19:49 | 50.54507 | 1.35812 | 23983 ft | 443 kts | 335° |
| 2026-05-07 19:50 | 50.57101 | 1.33260 | 23985 ft | 432 kts | 318° |
| 2026-05-07 19:50 | 50.59157 | 1.29981 | 23860 ft | 421 kts | 312° |
| 2026-05-07 19:50 | 50.61104 | 1.26611 | 23594 ft | 414 kts | 312° |
| 2026-05-07 19:50 | 50.63031 | 1.23278 | 23019 ft | 415 kts | 312° |
| 2026-05-07 19:51 | 50.65004 | 1.19899 | 22439 ft | 416 kts | 313° |
| 2026-05-07 19:51 | 50.66961 | 1.16576 | 21867 ft | 417 kts | 313° |
| 2026-05-07 19:51 | 50.68909 | 1.13216 | 21292 ft | 417 kts | 310° |
| 2026-05-07 19:51 | 50.70775 | 1.09727 | 20719 ft | 418 kts | 309° |
| 2026-05-07 19:52 | 50.72606 | 1.06221 | 20147 ft | 418 kts | 309° |
| 2026-05-07 19:52 | 50.74443 | 1.02698 | 19574 ft | 418 kts | 309° |
| 2026-05-07 19:52 | 50.76300 | 0.99149 | 18996 ft | 418 kts | 309° |
| 2026-05-07 19:52 | 50.78140 | 0.95643 | 18426 ft | 417 kts | 309° |
| 2026-05-07 19:53 | 50.79972 | 0.92157 | 18073 ft | 411 kts | 310° |
| 2026-05-07 19:53 | 50.81769 | 0.88735 | 18004 ft | 397 kts | 310° |
| 2026-05-07 19:53 | 50.83491 | 0.85455 | 17982 ft | 383 kts | 310° |
| 2026-05-07 19:53 | 50.85170 | 0.82252 | 17803 ft | 374 kts | 310° |
| 2026-05-07 19:54 | 50.86820 | 0.79101 | 17629 ft | 364 kts | 310° |
| 2026-05-07 19:54 | 50.88398 | 0.76085 | 17462 ft | 355 kts | 310° |
| 2026-05-07 19:54 | 50.90020 | 0.73230 | 17289 ft | 346 kts | 314° |
| 2026-05-07 19:54 | 50.91717 | 0.70533 | 16782 ft | 344 kts | 315° |
| 2026-05-07 19:55 | 50.93411 | 0.67880 | 16026 ft | 344 kts | 315° |
| 2026-05-07 19:55 | 50.95078 | 0.65253 | 15394 ft | 339 kts | 315° |
| 2026-05-07 19:55 | 50.96740 | 0.62612 | 15063 ft | 336 kts | 315° |
| 2026-05-07 19:55 | 50.98363 | 0.60016 | 15007 ft | 327 kts | 315° |
| 2026-05-07 19:56 | 50.99934 | 0.57495 | 14996 ft | 313 kts | 315° |
| 2026-05-07 19:56 | 51.01441 | 0.55066 | 14996 ft | 309 kts | 315° |
| 2026-05-07 19:56 | 51.02954 | 0.52624 | 14995 ft | 307 kts | 315° |
| 2026-05-07 19:56 | 51.04404 | 0.50280 | 14991 ft | 298 kts | 315° |
| 2026-05-07 19:57 | 51.05856 | 0.47931 | 14994 ft | 296 kts | 315° |
| 2026-05-07 19:57 | 51.07297 | 0.45595 | 14973 ft | 294 kts | 315° |
| 2026-05-07 19:57 | 51.08714 | 0.43298 | 14685 ft | 292 kts | 315° |
| 2026-05-07 19:57 | 51.10153 | 0.40961 | 13885 ft | 306 kts | 315° |
| 2026-05-07 19:58 | 51.11668 | 0.38516 | 12907 ft | 320 kts | 315° |
| 2026-05-07 19:58 | 51.13238 | 0.35984 | 11912 ft | 329 kts | 315° |
| 2026-05-07 19:58 | 51.14852 | 0.33367 | 10910 ft | 336 kts | 314° |
| 2026-05-07 19:58 | 51.16477 | 0.30713 | 9914 ft | 340 kts | 314° |
| 2026-05-07 19:59 | 51.18122 | 0.28021 | 8996 ft | 341 kts | 314° |
| 2026-05-07 19:59 | 51.19749 | 0.25358 | 8382 ft | 332 kts | 314° |
| 2026-05-07 19:59 | 51.21324 | 0.22780 | 8054 ft | 315 kts | 314° |
| 2026-05-07 19:59 | 51.22800 | 0.20360 | 8001 ft | 296 kts | 314° |
| 2026-05-07 20:00 | 51.24225 | 0.18024 | 7999 ft | 294 kts | 314° |
| 2026-05-07 20:00 | 51.25655 | 0.15676 | 7998 ft | 294 kts | 314° |
| 2026-05-07 20:00 | 51.27069 | 0.13321 | 7995 ft | 294 kts | 309° |
| 2026-05-07 20:00 | 51.28037 | 0.10528 | 7984 ft | 294 kts | 284° |
| 2026-05-07 20:01 | 51.28319 | 0.07309 | 8003 ft | 294 kts | 273° |
| 2026-05-07 20:01 | 51.28388 | 0.04022 | 7999 ft | 294 kts | 273° |
| 2026-05-07 20:01 | 51.28606 | 0.00781 | 7998 ft | 294 kts | 278° |
| 2026-05-07 20:01 | 51.28938 | -0.02437 | 7998 ft | 293 kts | 280° |
| 2026-05-07 20:02 | 51.29290 | -0.05614 | 7998 ft | 293 kts | 280° |
| 2026-05-07 20:02 | 51.29649 | -0.08828 | 7998 ft | 293 kts | 280° |
| 2026-05-07 20:02 | 51.30009 | -0.12037 | 7933 ft | 289 kts | 280° |
| 2026-05-07 20:02 | 51.30358 | -0.15151 | 7434 ft | 286 kts | 280° |
| 2026-05-07 20:03 | 51.30708 | -0.18275 | 7080 ft | 287 kts | 280° |
| 2026-05-07 20:03 | 51.31060 | -0.21425 | 7009 ft | 287 kts | 280° |
| 2026-05-07 20:03 | 51.31402 | -0.24569 | 7003 ft | 287 kts | 279° |
| 2026-05-07 20:03 | 51.31723 | -0.27710 | 7003 ft | 285 kts | 279° |
| 2026-05-07 20:04 | 51.32027 | -0.30758 | 6995 ft | 271 kts | 279° |
| 2026-05-07 20:04 | 51.32315 | -0.33667 | 6988 ft | 257 kts | 279° |
| 2026-05-07 20:04 | 51.32590 | -0.36445 | 6986 ft | 248 kts | 279° |
| 2026-05-07 20:04 | 51.32854 | -0.39114 | 6986 ft | 241 kts | 279° |
| 2026-05-07 20:05 | 51.33114 | -0.41754 | 6993 ft | 241 kts | 279° |
| 2026-05-07 20:05 | 51.33377 | -0.44417 | 6996 ft | 241 kts | 279° |
| 2026-05-07 20:05 | 51.33640 | -0.47090 | 6997 ft | 241 kts | 279° |
| 2026-05-07 20:05 | 51.33899 | -0.49725 | 6998 ft | 241 kts | 279° |
| 2026-05-07 20:06 | 51.34159 | -0.52386 | 6998 ft | 241 kts | 279° |
| 2026-05-07 20:06 | 51.34415 | -0.55011 | 6867 ft | 237 kts | 279° |
| 2026-05-07 20:06 | 51.34670 | -0.57627 | 6520 ft | 239 kts | 279° |
| 2026-05-07 20:06 | 51.34924 | -0.60235 | 6208 ft | 238 kts | 279° |
| 2026-05-07 20:07 | 51.35175 | -0.62831 | 5923 ft | 237 kts | 279° |
| 2026-05-07 20:07 | 51.35428 | -0.65442 | 5635 ft | 236 kts | 278° |
| 2026-05-07 20:07 | 51.35677 | -0.68031 | 5349 ft | 235 kts | 278° |
| 2026-05-07 20:07 | 51.35923 | -0.70597 | 5065 ft | 234 kts | 278° |
| 2026-05-07 20:08 | 51.36170 | -0.73171 | 4781 ft | 233 kts | 278° |
| 2026-05-07 20:08 | 51.36636 | -0.75651 | 4478 ft | 232 kts | 300° |
| 2026-05-07 20:08 | 51.37667 | -0.77606 | 4181 ft | 231 kts | 329° |
| 2026-05-07 20:08 | 51.39132 | -0.78438 | 4024 ft | 222 kts | 353° |
| 2026-05-07 20:09 | 51.40646 | -0.78625 | 3933 ft | 212 kts | 358° |
| 2026-05-07 20:09 | 51.42060 | -0.78673 | 3884 ft | 199 kts | 359° |
| 2026-05-07 20:09 | 51.43427 | -0.78694 | 3682 ft | 195 kts | 359° |
| 2026-05-07 20:10 | 51.46133 | -0.78720 | 3145 ft | 194 kts | 359° |
| 2026-05-07 20:10 | 51.47454 | -0.78439 | 2919 ft | 193 kts | 34° |
| 2026-05-07 20:10 | 51.48285 | -0.76795 | 2947 ft | 195 kts | 81° |
| 2026-05-07 20:10 | 51.48226 | -0.74658 | 2969 ft | 195 kts | 103° |
| 2026-05-07 20:11 | 51.47929 | -0.72534 | 2943 ft | 194 kts | 98° |
| 2026-05-07 20:11 | 51.47769 | -0.70432 | 2948 ft | 188 kts | 94° |
| 2026-05-07 20:11 | 51.47705 | -0.68342 | 2932 ft | 186 kts | 91° |
| 2026-05-07 20:11 | 51.47695 | -0.66258 | 2927 ft | 185 kts | 89° |
| 2026-05-07 20:12 | 51.47706 | -0.64206 | 2925 ft | 185 kts | 89° |
| 2026-05-07 20:12 | 51.47715 | -0.62115 | 2924 ft | 185 kts | 89° |
| 2026-05-07 20:12 | 51.47715 | -0.60049 | 2915 ft | 186 kts | 90° |
| 2026-05-07 20:12 | 51.47729 | -0.57985 | 2730 ft | 181 kts | 87° |
| 2026-05-07 20:13 | 51.47712 | -0.55977 | 2099 ft | 190 kts | 91° |
| 2026-05-07 20:13 | 51.47735 | -0.53823 | 1408 ft | 201 kts | 89° |
| 2026-05-07 20:13 | 51.47753 | -0.51579 | 772 ft | 203 kts | 92° |
| 2026-05-07 20:13 | 51.47749 | -0.49350 | 283 ft | 200 kts | 89° |
| 2026-05-07 20:14 | 51.47759 | -0.47212 | 96 ft | 175 kts | 89° |
| 2026-05-07 20:14 | 51.47758 | -0.45386 | 195 ft | 159 kts | 88° |
| 2026-05-07 20:14 | 51.47723 | -0.43663 | 732 ft | 153 kts | 94° |
| 2026-05-07 20:14 | 51.47651 | -0.41976 | 1050 ft | 158 kts | 96° |
| 2026-05-07 20:15 | 51.47507 | -0.40198 | 1386 ft | 162 kts | 95° |
| 2026-05-07 20:15 | 51.47461 | -0.38445 | 1834 ft | 158 kts | 92° |
| 2026-05-07 20:15 | 51.47427 | -0.36587 | 1928 ft | 181 kts | 91° |
| 2026-05-07 20:15 | 51.47381 | -0.34374 | 1949 ft | 216 kts | 92° |
| 2026-05-07 20:16 | 51.47328 | -0.31871 | 1938 ft | 227 kts | 92° |
| 2026-05-07 20:16 | 51.47273 | -0.29312 | 1930 ft | 229 kts | 92° |
| 2026-05-07 20:16 | 51.47221 | -0.26770 | 1948 ft | 232 kts | 92° |
| 2026-05-07 20:16 | 51.46893 | -0.24191 | 2421 ft | 239 kts | 110° |
| 2026-05-07 20:17 | 51.46553 | -0.21672 | 3102 ft | 236 kts | 86° |
| 2026-05-07 20:17 | 51.47003 | -0.19180 | 3381 ft | 236 kts | 55° |
| 2026-05-07 20:17 | 51.48208 | -0.17388 | 3412 ft | 237 kts | 24° |
| 2026-05-07 20:17 | 51.49786 | -0.16767 | 3429 ft | 237 kts | 5° |
| 2026-05-07 20:18 | 51.51445 | -0.16632 | 3491 ft | 237 kts | 1° |
| 2026-05-07 20:18 | 51.53099 | -0.16601 | 3725 ft | 243 kts | 0° |
| 2026-05-07 20:18 | 51.54749 | -0.16591 | 3913 ft | 233 kts | 0° |
| 2026-05-07 20:18 | 51.56355 | -0.16586 | 3913 ft | 231 kts | 0° |
| 2026-05-07 20:19 | 51.57960 | -0.16627 | 3914 ft | 231 kts | 351° |
| 2026-05-07 20:19 | 51.59417 | -0.17605 | 3906 ft | 230 kts | 317° |
| 2026-05-07 20:19 | 51.60308 | -0.19703 | 3920 ft | 230 kts | 284° |
| 2026-05-07 20:19 | 51.60552 | -0.22247 | 3942 ft | 231 kts | 273° |
| 2026-05-07 20:20 | 51.60603 | -0.24832 | 3932 ft | 231 kts | 271° |
| 2026-05-07 20:20 | 51.60612 | -0.27397 | 3924 ft | 227 kts | 270° |
| 2026-05-07 20:20 | 51.60611 | -0.29896 | 3916 ft | 220 kts | 270° |
| 2026-05-07 20:20 | 51.60608 | -0.32386 | 3921 ft | 220 kts | 270° |
| 2026-05-07 20:21 | 51.60605 | -0.34825 | 3923 ft | 220 kts | 270° |
| 2026-05-07 20:21 | 51.60601 | -0.37292 | 3923 ft | 220 kts | 270° |
| 2026-05-07 20:21 | 51.60597 | -0.39788 | 3924 ft | 220 kts | 270° |
| 2026-05-07 20:21 | 51.60593 | -0.42232 | 3924 ft | 220 kts | 270° |
| 2026-05-07 20:22 | 51.60588 | -0.44695 | 3924 ft | 220 kts | 270° |
| 2026-05-07 20:22 | 51.60583 | -0.47179 | 3924 ft | 220 kts | 270° |
| 2026-05-07 20:22 | 51.60578 | -0.49623 | 3924 ft | 220 kts | 270° |
| 2026-05-07 20:22 | 51.60573 | -0.52111 | 3924 ft | 220 kts | 270° |
| 2026-05-07 20:23 | 51.60567 | -0.54570 | 3924 ft | 220 kts | 270° |
| 2026-05-07 20:23 | 51.60561 | -0.57027 | 3924 ft | 220 kts | 270° |
| 2026-05-07 20:23 | 51.60555 | -0.59485 | 3924 ft | 220 kts | 270° |
| 2026-05-07 20:23 | 51.60549 | -0.61955 | 3924 ft | 220 kts | 270° |
| 2026-05-07 20:24 | 51.60543 | -0.64421 | 3924 ft | 220 kts | 270° |
| 2026-05-07 20:24 | 51.60526 | -0.66890 | 3921 ft | 220 kts | 264° |
| 2026-05-07 20:24 | 51.60098 | -0.69249 | 3924 ft | 219 kts | 244° |
| 2026-05-07 20:24 | 51.59410 | -0.71396 | 3798 ft | 214 kts | 240° |
| 2026-05-07 20:25 | 51.58674 | -0.73487 | 3490 ft | 216 kts | 240° |
| 2026-05-07 20:25 | 51.57925 | -0.75569 | 3211 ft | 216 kts | 239° |
| 2026-05-07 20:25 | 51.57173 | -0.77648 | 2950 ft | 215 kts | 239° |
| 2026-05-07 20:25 | 51.56431 | -0.79700 | 2752 ft | 213 kts | 239° |
| 2026-05-07 20:26 | 51.55525 | -0.81587 | 2716 ft | 214 kts | 213° |
| 2026-05-07 20:26 | 51.54152 | -0.82428 | 2737 ft | 214 kts | 187° |
| 2026-05-07 20:26 | 51.52676 | -0.82610 | 2852 ft | 212 kts | 181° |
| 2026-05-07 20:26 | 51.51264 | -0.82644 | 3142 ft | 189 kts | 180° |
| 2026-05-07 20:27 | 51.50021 | -0.82606 | 3037 ft | 175 kts | 168° |
| 2026-05-07 20:27 | 51.48985 | -0.81627 | 2764 ft | 182 kts | 130° |
| 2026-05-07 20:27 | 51.48288 | -0.79920 | 2729 ft | 184 kts | 114° |
| 2026-05-07 20:27 | 51.47859 | -0.77980 | 2729 ft | 185 kts | 103° |
| 2026-05-07 20:28 | 51.47655 | -0.75942 | 2724 ft | 182 kts | 94° |
| 2026-05-07 20:28 | 51.47630 | -0.73995 | 2706 ft | 172 kts | 88° |
| 2026-05-07 20:28 | 51.47667 | -0.72085 | 2716 ft | 171 kts | 88° |
| 2026-05-07 20:28 | 51.47699 | -0.70173 | 2681 ft | 172 kts | 89° |
| 2026-05-07 20:29 | 51.47714 | -0.68254 | 2457 ft | 171 kts | 89° |
| 2026-05-07 20:29 | 51.47719 | -0.66346 | 2234 ft | 170 kts | 90° |
| 2026-05-07 20:29 | 51.47719 | -0.64448 | 2012 ft | 170 kts | 90° |
| 2026-05-07 20:29 | 51.47719 | -0.62567 | 1791 ft | 169 kts | 90° |
| 2026-05-07 20:30 | 51.47721 | -0.60689 | 1569 ft | 169 kts | 90° |
| 2026-05-07 20:30 | 51.47723 | -0.58800 | 1346 ft | 168 kts | 90° |
| 2026-05-07 20:30 | 51.47727 | -0.56942 | 1127 ft | 167 kts | 89° |
| 2026-05-07 20:30 | 51.47731 | -0.55076 | 903 ft | 166 kts | 89° |
| 2026-05-07 20:31 | 51.47736 | -0.53242 | 687 ft | 165 kts | 89° |
| 2026-05-07 20:31 | 51.47741 | -0.51396 | 469 ft | 165 kts | 89° |
| 2026-05-07 20:31 | 51.47746 | -0.49546 | 255 ft | 164 kts | 89° |
| 2026-05-07 20:31 | 51.47752 | -0.47748 | 97 ft | 156 kts | 89° |
| 2026-05-07 20:32 | 51.47753 | -0.46401 | 92 ft | 76 kts | 89° |
| 2026-05-07 20:32 | 51.47761 | -0.45712 | 91 ft | 53 kts | 89° |
| 2026-05-07 20:32 | 51.47762 | -0.45548 | 92 ft | 2 kts | 90° |
| 2026-05-07 20:32 | 51.47759 | -0.45400 | 95 ft | 14 kts | 91° |
| 2026-05-07 20:33 | 51.47749 | -0.45248 | 98 ft | 12 kts | 112° |
| 2026-05-07 20:33 | 51.47682 | -0.45179 | 100 ft | 12 kts | 176° |
| 2026-05-07 20:33 | 51.47672 | -0.45179 | 100 ft | 0 kts | 180° |
| 2026-05-07 20:35 | 51.47660 | -0.45179 | 100 ft | 3 kts | 179° |
| 2026-05-07 20:35 | 51.47629 | -0.45177 | 100 ft | 5 kts | 175° |
| 2026-05-07 20:35 | 51.47580 | -0.45173 | 100 ft | 8 kts | 180° |
| 2026-05-07 20:35 | 51.47519 | -0.45153 | 100 ft | 9 kts | 140° |
| 2026-05-07 20:36 | 51.47507 | -0.45070 | 102 ft | 8 kts | 90° |
| 2026-05-07 20:36 | 51.47506 | -0.44992 | 103 ft | 8 kts | 90° |
| 2026-05-07 20:36 | 51.47506 | -0.44958 | 103 ft | 9 kts | 90° |
| 2026-05-07 20:36 | 51.47506 | -0.44924 | 103 ft | 10 kts | 90° |
| 2026-05-07 20:37 | 51.47506 | -0.44796 | 102 ft | 12 kts | 89° |
| 2026-05-07 20:37 | 51.47506 | -0.44704 | 100 ft | 0 kts | 89° |
| 2026-05-07 20:38 | 51.47506 | -0.44689 | 100 ft | 3 kts | 89° |
| 2026-05-07 20:38 | 51.47506 | -0.44627 | 100 ft | 6 kts | 93° |
| 2026-05-07 20:38 | 51.47475 | -0.44568 | 100 ft | 7 kts | 164° |
| 2026-05-07 20:39 | 51.47417 | -0.44563 | 101 ft | 8 kts | 179° |
| 2026-05-07 20:39 | 51.47353 | -0.44562 | 103 ft | 9 kts | 179° |
| 2026-05-07 20:39 | 51.47284 | -0.44557 | 103 ft | 10 kts | 148° |
| 2026-05-07 20:39 | 51.47268 | -0.44477 | 103 ft | 0 kts | 99° |
| 2026-05-07 20:40 | 51.47267 | -0.44474 | 103 ft | 1 kts | 98° |
| 2026-05-07 20:40 | 51.47266 | -0.44444 | 103 ft | 4 kts | 91° |
| 2026-05-07 20:40 | 51.47266 | -0.44442 | 103 ft | 0 kts | 91° |